Time;durP1;ratioP1;P1;durP2;ratioP2;P2;SDS_P1;SDS_P2;PMS_P1;PMS_P2;Temp;Humidity;BMP_temperature;BMP_pressure;BME280_temperature;BME280_humidity;BME280_pressure;Samples;Min_cycle;Max_cycle;Signal;HPM_P1;HPM_P2
2022/02/22 00:01:00;;;;;;;0.30;0.30;;;5.20;99.90;;;;;;4435514;32;20153;-64
2022/02/22 00:03:26;;;;;;;0.77;0.77;;;5.20;99.90;;;;;;4434347;32;20053;-64
2022/02/22 00:05:51;;;;;;;0.32;0.32;;;5.30;99.90;;;;;;4436964;32;20457;-64
2022/02/22 00:08:17;;;;;;;0.35;0.35;;;5.30;99.90;;;;;;4436313;32;20073;-64
2022/02/22 00:10:42;;;;;;;0.40;0.40;;;5.30;99.90;;;;;;4434896;32;20148;-64
2022/02/22 00:13:08;;;;;;;2.75;1.95;;;5.30;99.90;;;;;;4433843;32;20090;-64
2022/02/22 00:15:33;;;;;;;2.47;0.95;;;5.30;99.90;;;;;;4434048;32;20527;-64
2022/02/22 00:20:24;;;;;;;7.18;0.88;;;5.30;99.90;;;;;;4438375;32;20082;-64
2022/02/22 00:22:49;;;;;;;0.40;0.40;;;5.30;99.90;;;;;;4436478;32;20053;-64
2022/02/22 00:25:15;;;;;;;0.40;0.40;;;5.30;99.90;;;;;;4434863;32;20081;-64
2022/02/22 00:27:42;;;;;;;0.30;0.30;;;5.30;99.90;;;;;;4439960;32;20058;-64
2022/02/22 00:30:09;;;;;;;0.40;0.40;;;5.30;99.90;;;;;;4433755;32;20521;-64
2022/02/22 00:32:35;;;;;;;0.50;0.50;;;5.30;99.90;;;;;;4437792;32;20236;-64
2022/02/22 00:35:00;;;;;;;0.75;0.75;;;5.30;99.90;;;;;;4437094;32;20456;-64
2022/02/22 00:37:26;;;;;;;0.40;0.40;;;5.30;99.90;;;;;;4436665;32;21315;-64
2022/02/22 00:39:51;;;;;;;0.40;0.40;;;5.30;99.90;;;;;;4436607;32;20065;-64
2022/02/22 00:42:17;;;;;;;0.57;0.57;;;5.40;99.90;;;;;;4435965;32;20481;-64
2022/02/22 00:44:43;;;;;;;14.32;1.90;;;5.40;99.90;;;;;;4434923;32;20069;-64
2022/02/22 00:47:08;;;;;;;0.30;0.30;;;5.40;99.90;;;;;;4439237;32;20074;-64
2022/02/22 00:49:34;;;;;;;0.32;0.32;;;5.40;99.90;;;;;;4437792;32;20078;-64
2022/02/22 00:52:00;;;;;;;4.20;1.50;;;5.40;99.90;;;;;;4434587;32;20061;-64
2022/02/22 00:54:26;;;;;;;0.40;0.40;;;5.40;99.90;;;;;;4437413;32;20085;-64
2022/02/22 00:56:52;;;;;;;0.70;0.70;;;5.40;99.90;;;;;;4439643;32;20123;-64
2022/02/22 00:59:17;;;;;;;0.40;0.40;;;5.40;99.90;;;;;;4439432;32;20516;-64
2022/02/22 01:01:42;;;;;;;0.88;0.65;;;5.40;99.90;;;;;;4436405;32;20122;-64
2022/02/22 01:04:08;;;;;;;0.37;0.37;;;5.40;99.90;;;;;;4442494;32;20158;-64
2022/02/22 01:06:33;;;;;;;0.30;0.30;;;5.40;99.90;;;;;;4433552;32;20065;-64
2022/02/22 01:08:59;;;;;;;0.75;0.75;;;5.40;99.90;;;;;;4438453;32;20073;-64
2022/02/22 01:11:25;;;;;;;0.73;0.73;;;5.40;99.90;;;;;;4439211;32;20576;-64
2022/02/22 01:13:51;;;;;;;1.05;0.62;;;5.50;99.90;;;;;;4436336;32;20069;-64
2022/02/22 01:16:17;;;;;;;1.95;1.12;;;5.50;99.90;;;;;;4442348;32;20423;-64
2022/02/22 01:18:42;;;;;;;7.70;0.85;;;5.50;99.90;;;;;;4439265;32;20124;-64
2022/02/22 01:21:07;;;;;;;0.50;0.50;;;5.40;99.90;;;;;;4437961;32;20184;-64
2022/02/22 01:23:33;;;;;;;0.30;0.30;;;5.50;99.90;;;;;;4440943;32;20121;-64
2022/02/22 01:26:00;;;;;;;0.35;0.35;;;5.40;99.90;;;;;;4439481;32;20435;-64
2022/02/22 01:28:25;;;;;;;0.93;0.70;;;5.50;99.90;;;;;;4437722;32;20625;-64
2022/02/22 01:30:51;;;;;;;4.68;1.85;;;5.50;99.90;;;;;;4440249;32;20085;-64
2022/02/22 01:33:16;;;;;;;1.52;1.42;;;5.40;99.90;;;;;;4439264;32;20411;-64
2022/02/22 01:35:42;;;;;;;11.98;1.95;;;5.40;99.90;;;;;;4436884;32;20128;-64
2022/02/22 01:38:07;;;;;;;0.37;0.37;;;5.40;99.90;;;;;;4439525;32;20144;-64
2022/02/22 01:40:33;;;;;;;0.50;0.50;;;5.40;99.90;;;;;;4436679;32;20058;-64
2022/02/22 01:42:59;;;;;;;0.40;0.40;;;5.40;99.90;;;;;;4437182;32;20065;-64
2022/02/22 01:45:25;;;;;;;1.75;0.80;;;5.50;99.90;;;;;;4437352;32;20057;-64
2022/02/22 01:47:50;;;;;;;0.50;0.50;;;5.50;99.90;;;;;;4437644;32;20089;-64
2022/02/22 01:50:16;;;;;;;0.52;0.52;;;5.50;99.90;;;;;;4435511;32;20390;-64
2022/02/22 01:52:41;;;;;;;0.52;0.52;;;5.60;99.90;;;;;;4439918;32;20169;-64
2022/02/22 01:55:08;;;;;;;0.40;0.40;;;5.50;99.90;;;;;;4436804;32;20065;-64
2022/02/22 01:57:34;;;;;;;0.85;0.85;;;5.60;99.90;;;;;;4440806;32;20072;-64
2022/02/22 02:00:01;;;;;;;0.40;0.40;;;5.60;99.90;;;;;;4438519;32;20720;-64
2022/02/22 02:02:26;;;;;;;0.40;0.40;;;5.60;99.90;;;;;;4436914;32;20081;-64
2022/02/22 02:04:52;;;;;;;0.68;0.68;;;5.60;99.90;;;;;;4436879;32;20767;-64
2022/02/22 02:07:17;;;;;;;0.70;0.70;;;5.60;99.90;;;;;;4439515;32;20101;-64
2022/02/22 02:09:43;;;;;;;3.40;1.10;;;5.60;99.90;;;;;;4438594;32;20065;-64
2022/02/22 02:12:09;;;;;;;0.30;0.30;;;5.60;99.90;;;;;;4435105;32;21274;-64
2022/02/22 02:14:35;;;;;;;0.37;0.37;;;5.50;99.90;;;;;;4434254;32;20061;-64
2022/02/22 02:17:00;;;;;;;0.30;0.30;;;5.60;99.90;;;;;;4438764;32;20533;-64
2022/02/22 02:19:26;;;;;;;0.40;0.40;;;5.60;99.90;;;;;;4440430;32;20081;-64
2022/02/22 02:21:55;;;;;;;0.93;0.85;;;5.60;99.90;;;;;;4439793;32;20609;-64
2022/02/22 02:24:23;;;;;;;1.20;0.88;;;5.60;99.90;;;;;;4427104;32;20065;-64
2022/02/22 02:26:50;;;;;;;2.37;1.25;;;5.60;99.90;;;;;;4438097;32;20073;-64
2022/02/22 02:29:18;;;;;;;0.40;0.40;;;5.70;99.90;;;;;;4436568;32;20061;-64
2022/02/22 02:31:46;;;;;;;0.30;0.30;;;5.60;99.90;;;;;;4437693;32;20081;-64
2022/02/22 02:34:14;;;;;;;0.30;0.30;;;5.60;99.90;;;;;;4436016;32;20227;-64
2022/02/22 02:36:40;;;;;;;0.65;0.40;;;5.60;99.90;;;;;;4437940;32;20109;-64
2022/02/22 02:39:07;;;;;;;1.77;0.93;;;5.60;99.90;;;;;;4436213;32;20094;-64
2022/02/22 02:41:35;;;;;;;0.77;0.77;;;5.60;99.90;;;;;;4440909;32;20751;-64
2022/02/22 02:44:03;;;;;;;0.82;0.82;;;5.50;99.90;;;;;;4439837;32;20128;-64
2022/02/22 02:46:29;;;;;;;3.00;0.82;;;5.50;99.90;;;;;;4439212;32;20064;-64
2022/02/22 02:48:55;;;;;;;0.30;0.30;;;5.60;99.90;;;;;;4433969;32;20128;-64
2022/02/22 02:51:21;;;;;;;2.45;1.00;;;5.60;99.90;;;;;;4437689;32;20060;-64
2022/02/22 02:53:47;;;;;;;0.50;0.50;;;5.50;99.90;;;;;;4438351;32;20478;-64
2022/02/22 02:56:13;;;;;;;0.70;0.70;;;5.50;99.90;;;;;;4435951;32;20072;-64
2022/02/22 02:58:38;;;;;;;0.40;0.40;;;5.50;99.90;;;;;;4437166;32;20078;-64
2022/02/22 03:01:03;;;;;;;0.85;0.85;;;5.50;99.90;;;;;;4436067;32;20077;-64
2022/02/22 03:03:29;;;;;;;4.65;0.90;;;5.50;99.90;;;;;;4436697;32;20064;-64
2022/02/22 03:05:54;;;;;;;0.95;0.80;;;5.50;99.90;;;;;;4439415;32;20121;-64
2022/02/22 03:08:20;;;;;;;1.50;0.70;;;5.50;99.90;;;;;;4437723;32;20061;-64
2022/02/22 03:10:46;;;;;;;0.30;0.30;;;5.50;99.90;;;;;;4437725;32;20103;-64
2022/02/22 03:13:11;;;;;;;0.40;0.40;;;5.50;99.90;;;;;;4434038;32;20078;-64
2022/02/22 03:15:37;;;;;;;0.45;0.45;;;5.60;99.90;;;;;;4437465;32;20486;-64
2022/02/22 03:18:02;;;;;;;0.50;0.50;;;5.60;99.90;;;;;;4433194;32;20655;-64
2022/02/22 03:20:28;;;;;;;0.40;0.40;;;5.60;99.90;;;;;;4443180;32;20077;-64
2022/02/22 03:22:53;;;;;;;2.47;1.67;;;5.60;99.90;;;;;;4440003;32;20073;-64
2022/02/22 03:25:19;;;;;;;0.40;0.40;;;5.70;99.90;;;;;;4437322;32;20077;-64
2022/02/22 03:27:45;;;;;;;0.40;0.40;;;5.60;99.90;;;;;;4438956;32;20073;-64
2022/02/22 03:30:11;;;;;;;0.93;0.45;;;5.70;99.90;;;;;;4437372;32;20089;-64
2022/02/22 03:32:36;;;;;;;0.43;0.43;;;5.70;99.90;;;;;;4438393;32;20081;-64
2022/02/22 03:35:02;;;;;;;0.40;0.40;;;5.60;99.90;;;;;;4433637;32;20100;-64
2022/02/22 03:37:28;;;;;;;0.50;0.45;;;5.50;99.90;;;;;;4434402;32;20070;-64
2022/02/22 03:39:53;;;;;;;0.30;0.30;;;5.60;99.90;;;;;;4435363;32;20069;-64
2022/02/22 03:42:19;;;;;;;0.40;0.40;;;5.60;99.90;;;;;;4436643;32;20116;-64
2022/02/22 03:44:44;;;;;;;0.45;0.45;;;5.60;99.90;;;;;;4438600;32;20453;-64
2022/02/22 03:47:10;;;;;;;3.72;0.98;;;5.50;99.90;;;;;;4434060;32;20169;-64
2022/02/22 03:49:35;;;;;;;1.15;0.68;;;5.50;99.90;;;;;;4436044;32;20104;-64
2022/02/22 03:52:01;;;;;;;0.37;0.37;;;5.60;99.90;;;;;;4435813;32;20092;-64
2022/02/22 03:54:26;;;;;;;4.03;0.85;;;5.60;99.90;;;;;;4434209;32;20135;-64
2022/02/22 03:56:52;;;;;;;5.57;1.40;;;5.50;99.90;;;;;;4436048;32;20318;-64
2022/02/22 03:59:17;;;;;;;4.43;1.37;;;5.50;99.90;;;;;;4435503;32;20093;-64
2022/02/22 04:01:43;;;;;;;0.50;0.50;;;5.60;99.90;;;;;;4437338;32;20406;-64
2022/02/22 04:04:08;;;;;;;0.30;0.30;;;5.60;99.90;;;;;;4437548;32;20084;-64
2022/02/22 04:06:34;;;;;;;1.25;1.10;;;5.60;99.90;;;;;;4434968;32;20065;-64
2022/02/22 04:08:59;;;;;;;0.62;0.62;;;5.60;99.90;;;;;;4435536;32;20353;-64
2022/02/22 04:11:25;;;;;;;0.40;0.40;;;5.60;99.90;;;;;;4437222;32;20080;-64
2022/02/22 04:13:50;;;;;;;0.30;0.30;;;5.60;99.90;;;;;;4438344;32;20127;-64
2022/02/22 04:16:16;;;;;;;0.40;0.40;;;5.60;99.90;;;;;;4436336;32;20057;-64
2022/02/22 04:18:41;;;;;;;0.47;0.45;;;5.50;99.90;;;;;;4436391;32;20455;-63
2022/02/22 04:21:07;;;;;;;4.37;1.60;;;5.50;99.90;;;;;;4435934;32;20365;-64
2022/02/22 04:23:32;;;;;;;24.20;0.98;;;5.50;99.90;;;;;;4436525;32;20098;-64
2022/02/22 04:25:58;;;;;;;0.68;0.68;;;5.50;99.90;;;;;;4438027;32;20413;-64
2022/02/22 04:28:23;;;;;;;3.30;0.85;;;5.50;99.90;;;;;;4433387;32;20061;-64
2022/02/22 04:30:48;;;;;;;1.95;1.10;;;5.50;99.90;;;;;;4435723;32;20061;-64
2022/02/22 04:33:14;;;;;;;3.15;1.00;;;5.50;99.90;;;;;;4435219;32;20139;-64
2022/02/22 04:35:39;;;;;;;1.17;1.02;;;5.50;99.90;;;;;;4438766;32;20438;-64
2022/02/22 04:38:05;;;;;;;0.90;0.90;;;5.50;99.90;;;;;;4443543;32;20570;-64
2022/02/22 04:40:30;;;;;;;1.23;1.12;;;5.50;99.90;;;;;;4435147;32;20070;-64
2022/02/22 04:42:57;;;;;;;2.05;1.83;;;5.40;99.90;;;;;;4436153;32;20092;-64
2022/02/22 04:45:22;;;;;;;1.48;0.52;;;5.40;99.90;;;;;;4435172;32;20109;-64
2022/02/22 04:47:48;;;;;;;1.30;0.95;;;5.40;99.90;;;;;;4441274;32;20452;-64
2022/02/22 04:50:14;;;;;;;0.75;0.75;;;5.30;99.90;;;;;;4436314;32;20107;-64
2022/02/22 04:52:39;;;;;;;6.50;1.73;;;5.40;99.90;;;;;;4438934;32;20061;-64
2022/02/22 04:55:06;;;;;;;0.57;0.47;;;5.30;99.90;;;;;;4440228;32;20073;-64
2022/02/22 04:57:34;;;;;;;1.23;1.10;;;5.30;99.90;;;;;;4437837;32;20084;-64
2022/02/22 05:00:00;;;;;;;3.50;1.17;;;5.30;99.90;;;;;;4436970;32;20066;-64
2022/02/22 05:02:25;;;;;;;0.40;0.40;;;5.40;99.90;;;;;;4439590;32;20074;-64
2022/02/22 05:04:50;;;;;;;0.35;0.35;;;5.40;99.90;;;;;;4436472;32;20113;-64
2022/02/22 05:07:16;;;;;;;1.27;1.17;;;5.40;99.90;;;;;;4439334;32;20068;-64
2022/02/22 05:09:41;;;;;;;0.50;0.50;;;5.40;99.90;;;;;;4440620;32;20064;-64
2022/02/22 05:12:09;;;;;;;0.60;0.60;;;5.40;99.90;;;;;;4436694;32;20097;-64
2022/02/22 05:14:35;;;;;;;3.10;1.05;;;5.40;99.90;;;;;;4440301;32;20104;-64
2022/02/22 05:17:00;;;;;;;1.17;0.95;;;5.30;99.90;;;;;;4436605;32;20064;-64
2022/02/22 05:19:26;;;;;;;0.73;0.73;;;5.30;99.90;;;;;;4438440;32;20085;-64
2022/02/22 05:21:51;;;;;;;4.18;1.10;;;5.30;99.90;;;;;;4433776;32;20578;-64
2022/02/22 05:24:17;;;;;;;0.68;0.68;;;5.30;99.90;;;;;;4438021;32;20139;-64
2022/02/22 05:26:42;;;;;;;2.87;1.92;;;5.20;99.90;;;;;;4442640;32;20090;-63
2022/02/22 05:29:08;;;;;;;1.75;0.90;;;5.30;99.90;;;;;;4440661;32;20089;-64
2022/02/22 05:31:34;;;;;;;0.50;0.50;;;5.20;99.90;;;;;;4439712;32;20062;-66
2022/02/22 05:33:59;;;;;;;0.65;0.65;;;5.20;99.90;;;;;;4438128;32;20081;-63
2022/02/22 05:36:25;;;;;;;4.22;0.98;;;5.30;99.90;;;;;;4441286;32;20524;-63
2022/02/22 05:38:51;;;;;;;0.70;0.70;;;5.20;99.90;;;;;;4440320;32;20094;-63
2022/02/22 05:41:18;;;;;;;1.10;1.02;;;5.30;99.90;;;;;;4444529;32;20061;-64
2022/02/22 05:43:46;;;;;;;1.85;0.95;;;5.30;99.90;;;;;;4438092;32;20080;-63
2022/02/22 05:46:11;;;;;;;14.75;1.25;;;5.30;99.90;;;;;;4437383;32;20070;-63
2022/02/22 05:48:37;;;;;;;5.37;0.82;;;5.30;99.90;;;;;;4441289;32;20406;-63
2022/02/22 05:51:02;;;;;;;0.73;0.73;;;5.30;99.90;;;;;;4437017;32;20089;-63
2022/02/22 05:53:28;;;;;;;0.60;0.60;;;5.30;99.90;;;;;;4436996;32;20084;-63
2022/02/22 05:55:53;;;;;;;7.07;3.12;;;5.30;99.90;;;;;;4440963;32;20126;-63
2022/02/22 05:58:19;;;;;;;0.37;0.37;;;5.30;99.90;;;;;;4438813;32;20069;-64
2022/02/22 06:00:45;;;;;;;0.47;0.47;;;5.30;99.90;;;;;;4435455;32;20077;-64
2022/02/22 06:03:11;;;;;;;0.65;0.65;;;5.30;99.90;;;;;;4428807;32;20081;-64
2022/02/22 06:05:36;;;;;;;0.50;0.50;;;5.20;99.90;;;;;;4433611;32;20069;-64
2022/02/22 06:08:02;;;;;;;15.10;1.70;;;5.30;99.90;;;;;;4438522;32;20082;-64
2022/02/22 06:10:28;;;;;;;3.72;1.75;;;5.30;99.90;;;;;;4438046;32;20077;-64
2022/02/22 06:12:54;;;;;;;0.40;0.40;;;5.30;99.90;;;;;;4439530;32;20057;-64
2022/02/22 06:15:20;;;;;;;7.90;1.65;;;5.30;99.90;;;;;;4438229;32;20064;-64
2022/02/22 06:17:45;;;;;;;1.65;1.02;;;5.30;99.90;;;;;;4422098;32;20203;-64
2022/02/22 06:20:12;;;;;;;5.18;2.10;;;5.30;99.90;;;;;;4422825;32;20453;-64
2022/02/22 06:22:38;;;;;;;0.85;0.85;;;5.30;99.90;;;;;;4438986;32;20548;-64
2022/02/22 06:25:06;;;;;;;0.65;0.65;;;5.30;99.90;;;;;;4435291;32;20116;-64
2022/02/22 06:27:32;;;;;;;6.07;0.70;;;5.30;99.90;;;;;;4421634;32;20065;-64
2022/02/22 06:29:58;;;;;;;2.10;0.93;;;5.20;99.90;;;;;;4431969;32;20082;-64
2022/02/22 06:32:24;;;;;;;4.87;1.92;;;5.20;99.90;;;;;;4409038;32;20094;-64
2022/02/22 06:34:50;;;;;;;0.50;0.50;;;5.10;99.90;;;;;;4433300;32;20096;-64
2022/02/22 06:37:15;;;;;;;5.87;2.83;;;5.10;99.90;;;;;;4429481;32;20082;-64
2022/02/22 06:39:41;;;;;;;0.55;0.55;;;5.10;99.90;;;;;;4430179;32;20088;-64
2022/02/22 06:42:08;;;;;;;1.45;1.08;;;5.20;99.90;;;;;;4433261;32;20088;-64
2022/02/22 06:44:36;;;;;;;0.77;0.77;;;5.10;99.90;;;;;;4432288;32;20061;-64
2022/02/22 06:47:02;;;;;;;1.65;0.93;;;5.20;99.90;;;;;;4424432;32;20165;-60
2022/02/22 06:49:27;;;;;;;1.58;1.45;;;5.20;99.90;;;;;;4402761;32;20230;-64
2022/02/22 06:51:53;;;;;;;31.20;1.37;;;5.20;99.90;;;;;;4415094;32;20794;-64
2022/02/22 06:54:21;;;;;;;9.43;1.20;;;5.20;99.90;;;;;;4417807;32;20150;-64
2022/02/22 06:56:46;;;;;;;0.65;0.65;;;5.20;99.90;;;;;;4415277;32;20077;-63
2022/02/22 06:59:12;;;;;;;0.50;0.45;;;5.30;99.90;;;;;;4408937;32;20114;-63
2022/02/22 07:01:37;;;;;;;0.82;0.82;;;5.30;99.90;;;;;;4413415;32;20403;-64
2022/02/22 07:04:03;;;;;;;4.30;1.45;;;5.20;99.90;;;;;;4408285;32;20126;-63
2022/02/22 07:06:28;;;;;;;1.50;1.35;;;5.20;99.90;;;;;;4412299;32;21630;-64
2022/02/22 07:08:54;;;;;;;2.92;0.75;;;5.20;99.90;;;;;;4411853;32;20521;-63
2022/02/22 07:11:19;;;;;;;1.55;1.02;;;5.20;99.90;;;;;;4409846;32;20117;-64
2022/02/22 07:13:44;;;;;;;0.52;0.52;;;5.30;99.90;;;;;;4413275;32;20493;-63
2022/02/22 07:16:13;;;;;;;1.60;1.23;;;5.30;99.90;;;;;;4415709;32;20605;-64
2022/02/22 07:18:38;;;;;;;2.45;1.23;;;5.30;99.90;;;;;;4416583;32;20492;-63
2022/02/22 07:21:04;;;;;;;1.20;0.98;;;5.40;99.90;;;;;;4417101;32;20098;-64
2022/02/22 07:23:29;;;;;;;4.62;1.90;;;5.30;99.90;;;;;;4417490;32;20128;-64
2022/02/22 07:25:55;;;;;;;8.45;1.05;;;5.30;99.90;;;;;;4413741;32;20086;-64
2022/02/22 07:28:20;;;;;;;1.95;1.70;;;5.20;99.90;;;;;;4408112;32;20105;-64
2022/02/22 07:30:46;;;;;;;0.30;0.30;;;5.20;99.90;;;;;;4402767;32;20108;-64
2022/02/22 07:33:12;;;;;;;15.50;1.70;;;5.20;99.90;;;;;;4412366;32;20080;-63
2022/02/22 07:35:37;;;;;;;34.60;0.82;;;5.20;99.90;;;;;;4415613;32;107441;-63
2022/02/22 07:38:03;;;;;;;0.43;0.43;;;5.20;99.90;;;;;;4412255;32;20106;-63
2022/02/22 07:40:29;;;;;;;0.40;0.40;;;5.20;99.90;;;;;;4415912;32;20105;-64
2022/02/22 07:42:55;;;;;;;1.23;1.10;;;5.20;99.90;;;;;;4416435;32;20845;-64
2022/02/22 07:45:21;;;;;;;3.97;2.33;;;5.10;99.90;;;;;;4412749;32;21489;-65
2022/02/22 07:47:46;;;;;;;1.85;1.12;;;5.10;99.90;;;;;;4413651;32;20097;-63
2022/02/22 07:50:12;;;;;;;2.05;0.65;;;5.10;99.90;;;;;;4411014;32;20699;-63
2022/02/22 07:52:38;;;;;;;0.40;0.40;;;5.10;99.90;;;;;;4410722;32;20089;-63
2022/02/22 07:55:05;;;;;;;0.40;0.40;;;5.20;99.90;;;;;;4412162;32;20566;-64
2022/02/22 07:57:31;;;;;;;0.60;0.60;;;5.20;99.90;;;;;;4419100;32;20120;-64
2022/02/22 07:59:57;;;;;;;0.68;0.68;;;5.20;99.90;;;;;;4409142;32;20832;-64
2022/02/22 08:02:23;;;;;;;0.55;0.55;;;5.20;99.90;;;;;;4411720;32;20628;-64
2022/02/22 08:04:49;;;;;;;9.43;0.80;;;5.30;99.90;;;;;;4413884;32;20125;-64
2022/02/22 08:07:17;;;;;;;19.55;1.50;;;5.40;99.90;;;;;;4408698;32;20081;-64
2022/02/22 08:09:42;;;;;;;2.33;1.12;;;5.30;99.90;;;;;;4413032;32;20085;-63
2022/02/22 08:12:08;;;;;;;0.45;0.45;;;5.40;99.90;;;;;;4412575;32;20123;-63
2022/02/22 08:14:34;;;;;;;0.30;0.30;;;5.40;99.90;;;;;;4411914;32;20152;-64
2022/02/22 08:17:00;;;;;;;2.30;1.55;;;5.50;99.90;;;;;;4415953;32;20077;-63
2022/02/22 08:19:27;;;;;;;0.60;0.60;;;5.60;99.90;;;;;;4405975;32;20085;-63
2022/02/22 08:21:53;;;;;;;2.22;1.12;;;5.60;99.90;;;;;;4400435;32;20138;-63
2022/02/22 08:24:18;;;;;;;8.80;0.85;;;5.60;99.90;;;;;;4406224;32;20101;-62
2022/02/22 08:26:44;;;;;;;0.32;0.32;;;5.50;99.90;;;;;;4403990;32;20097;-63
2022/02/22 08:29:10;;;;;;;1.08;0.75;;;5.40;99.90;;;;;;4400639;32;20101;-63
2022/02/22 08:31:36;;;;;;;0.40;0.40;;;5.50;99.90;;;;;;4407647;32;20157;-64
2022/02/22 08:34:02;;;;;;;0.57;0.57;;;5.50;99.90;;;;;;4411951;32;20605;-64
2022/02/22 08:36:29;;;;;;;0.32;0.32;;;5.40;99.90;;;;;;4411878;32;20125;-64
2022/02/22 08:38:55;;;;;;;0.73;0.60;;;5.50;99.90;;;;;;4426327;32;20434;-64
2022/02/22 08:41:21;;;;;;;0.40;0.40;;;5.50;99.90;;;;;;4420357;32;20077;-64
2022/02/22 08:43:46;;;;;;;0.40;0.40;;;5.60;99.90;;;;;;4415332;32;20109;-65
2022/02/22 08:46:12;;;;;;;0.40;0.40;;;5.50;99.90;;;;;;4418717;32;20504;-65
2022/02/22 08:48:37;;;;;;;0.45;0.45;;;5.50;99.90;;;;;;4415230;32;20589;-65
2022/02/22 08:51:03;;;;;;;0.50;0.50;;;5.50;99.90;;;;;;4416646;32;20121;-65
2022/02/22 08:53:29;;;;;;;0.30;0.30;;;5.60;99.90;;;;;;4407900;32;20220;-66
2022/02/22 08:55:55;;;;;;;0.40;0.40;;;5.70;99.90;;;;;;4400122;32;20085;-64
2022/02/22 08:58:20;;;;;;;0.50;0.50;;;5.90;99.90;;;;;;4400398;32;20713;-65
2022/02/22 09:00:45;;;;;;;0.93;0.73;;;5.90;99.90;;;;;;4400967;32;20809;-65
2022/02/22 09:03:11;;;;;;;1.12;1.02;;;5.90;99.90;;;;;;4406530;32;20069;-65
2022/02/22 09:05:37;;;;;;;2.10;1.02;;;6.00;99.90;;;;;;4405913;32;20940;-65
2022/02/22 09:08:04;;;;;;;2.65;1.85;;;6.10;99.90;;;;;;4404672;32;20093;-65
2022/02/22 09:10:29;;;;;;;0.50;0.50;;;6.30;99.90;;;;;;4396355;32;26144;-65
2022/02/22 09:12:55;;;;;;;2.12;0.98;;;6.40;99.90;;;;;;4411597;32;20126;-65
2022/02/22 09:15:22;;;;;;;0.40;0.40;;;6.40;99.90;;;;;;4402869;32;20106;-65
2022/02/22 09:17:48;;;;;;;1.10;1.02;;;6.40;99.90;;;;;;4411935;32;20089;-64
2022/02/22 09:20:16;;;;;;;0.30;0.30;;;6.30;99.90;;;;;;4413186;32;20851;-65
2022/02/22 09:22:42;;;;;;;2.62;1.27;;;6.30;99.90;;;;;;4406036;32;20104;-65
2022/02/22 09:25:09;;;;;;;0.47;0.47;;;6.20;99.90;;;;;;4412215;32;20097;-65
2022/02/22 09:27:35;;;;;;;1.55;0.65;;;6.30;99.90;;;;;;4413909;32;20082;-65
2022/02/22 09:30:01;;;;;;;1.87;1.35;;;6.50;99.90;;;;;;4412924;32;20093;-65
2022/02/22 09:32:27;;;;;;;0.40;0.40;;;6.50;99.90;;;;;;4411447;32;20177;-65
2022/02/22 09:34:53;;;;;;;0.68;0.68;;;6.40;99.90;;;;;;4410470;32;20095;-65
2022/02/22 09:37:19;;;;;;;3.30;1.90;;;6.40;99.90;;;;;;4415485;32;20489;-65
2022/02/22 09:39:44;;;;;;;0.37;0.37;;;6.50;99.90;;;;;;4412717;32;20098;-65
2022/02/22 09:42:10;;;;;;;0.70;0.60;;;6.60;99.90;;;;;;4414865;32;20145;-65
2022/02/22 09:44:37;;;;;;;0.40;0.40;;;6.70;99.90;;;;;;4413790;32;21026;-65
2022/02/22 09:47:04;;;;;;;8.50;0.52;;;6.90;99.90;;;;;;4411069;32;20109;-65
2022/02/22 09:49:29;;;;;;;0.60;0.60;;;7.10;99.90;;;;;;4413697;32;20081;-65
2022/02/22 09:51:56;;;;;;;1.25;1.00;;;7.20;99.90;;;;;;4410883;32;20106;-65
2022/02/22 09:54:22;;;;;;;0.30;0.30;;;7.30;99.90;;;;;;4412236;32;20403;-65
2022/02/22 09:56:48;;;;;;;1.45;1.30;;;7.40;99.90;;;;;;4406706;32;21045;-65
2022/02/22 09:59:14;;;;;;;0.40;0.40;;;7.50;99.90;;;;;;4406482;32;20123;-66
2022/02/22 10:01:43;;;;;;;0.85;0.57;;;7.30;99.90;;;;;;4404164;32;20109;-65
2022/02/22 10:04:09;;;;;;;0.40;0.40;;;7.20;99.90;;;;;;4404655;32;20109;-65
2022/02/22 10:06:36;;;;;;;0.75;0.75;;;7.30;99.90;;;;;;4407463;32;20089;-65
2022/02/22 10:09:02;;;;;;;29.73;0.93;;;7.50;99.90;;;;;;4409760;32;20077;-65
2022/02/22 10:11:28;;;;;;;0.85;0.80;;;7.40;99.90;;;;;;4404290;32;20417;-66
2022/02/22 10:13:53;;;;;;;1.23;0.95;;;7.40;99.90;;;;;;4404412;32;20101;-65
2022/02/22 10:16:19;;;;;;;0.60;0.60;;;7.30;99.90;;;;;;4404000;32;20733;-65
2022/02/22 10:18:54;;;;;;;0.60;0.60;;;7.10;99.90;;;;;;4407759;32;20174;-65
2022/02/22 10:21:20;;;;;;;0.60;0.60;;;7.00;99.90;;;;;;4403979;32;20188;-65
2022/02/22 10:23:47;;;;;;;0.65;0.65;;;7.00;99.90;;;;;;4404800;32;20560;-65
2022/02/22 10:26:22;;;;;;;0.50;0.50;;;6.90;99.90;;;;;;4409170;32;20093;-66
2022/02/22 10:28:47;;;;;;;7.47;1.45;;;6.90;99.90;;;;;;4417437;32;20261;-65
2022/02/22 10:31:13;;;;;;;3.00;0.70;;;6.90;99.90;;;;;;4416298;32;20125;-65
2022/02/22 10:33:44;;;;;;;0.70;0.70;;;6.80;99.90;;;;;;4407931;32;20643;-65
2022/02/22 10:36:19;;;;;;;103.03;2.17;;;6.80;99.90;;;;;;4409314;32;20384;-65
2022/02/22 10:38:45;;;;;;;0.62;0.60;;;6.80;99.90;;;;;;4414510;32;20081;-64
2022/02/22 10:41:15;;;;;;;0.55;0.55;;;6.70;99.90;;;;;;4411445;32;20093;-64
2022/02/22 10:43:50;;;;;;;4.47;1.05;;;6.80;99.90;;;;;;4411106;32;20085;-65
2022/02/22 10:46:24;;;;;;;1.62;0.73;;;7.10;99.90;;;;;;4414863;32;20085;-65
2022/02/22 10:48:58;;;;;;;2.28;1.05;;;7.30;99.90;;;;;;4412761;32;20140;-64
2022/02/22 10:51:32;;;;;;;0.32;0.32;;;7.50;99.90;;;;;;4415531;32;20093;-67
2022/02/22 10:53:58;;;;;;;7.32;0.90;;;7.70;99.90;;;;;;4412553;32;20455;-65
2022/02/22 10:56:24;;;;;;;2.25;1.05;;;7.60;99.90;;;;;;4411001;32;20137;-64
2022/02/22 10:58:50;;;;;;;2.83;0.88;;;7.60;99.90;;;;;;4417707;32;20613;-65
2022/02/22 11:01:19;;;;;;;0.30;0.30;;;7.60;99.90;;;;;;4409210;32;20073;-65
2022/02/22 11:03:45;;;;;;;3.75;1.50;;;7.60;99.90;;;;;;4409466;32;20113;-65
2022/02/22 11:06:12;;;;;;;0.55;0.50;;;7.80;99.90;;;;;;4413075;32;20061;-65
2022/02/22 11:08:41;;;;;;;0.40;0.40;;;7.80;99.90;;;;;;4406315;32;20844;-65
2022/02/22 11:11:10;;;;;;;0.65;0.65;;;7.80;99.90;;;;;;4407220;32;20344;-65
2022/02/22 11:13:36;;;;;;;1.08;0.93;;;7.70;99.90;;;;;;4405577;32;20502;-65
2022/02/22 11:16:14;;;;;;;7.32;1.70;;;7.40;99.90;;;;;;4411667;32;20476;-64
2022/02/22 11:18:45;;;;;;;2.00;1.20;;;7.40;99.90;;;;;;4408083;32;20109;-64
2022/02/22 11:21:11;;;;;;;0.50;0.50;;;7.30;99.90;;;;;;4415815;32;20089;-64
2022/02/22 11:23:37;;;;;;;0.55;0.55;;;7.30;99.90;;;;;;4418308;32;20228;-64
2022/02/22 11:26:14;;;;;;;1.12;0.70;;;7.60;99.90;;;;;;4416339;32;20474;-64
2022/02/22 11:28:46;;;;;;;0.30;0.30;;;7.70;99.90;;;;;;4417437;32;20163;-65
2022/02/22 11:31:15;;;;;;;1.45;1.27;;;7.70;99.90;;;;;;4418324;32;20432;-65
2022/02/22 11:33:44;;;;;;;1.12;1.05;;;7.70;99.90;;;;;;4418758;32;20672;-65
2022/02/22 11:36:11;;;;;;;3.10;1.25;;;7.70;99.90;;;;;;4419415;32;20998;-64
2022/02/22 11:38:53;;;;;;;0.60;0.60;;;7.80;99.90;;;;;;4419725;32;20546;-64
2022/02/22 11:41:21;;;;;;;0.50;0.50;;;8.20;99.90;;;;;;4415368;32;20086;-64
2022/02/22 11:43:58;;;;;;;1.37;0.93;;;8.20;99.90;;;;;;4418394;32;20195;-64
2022/02/22 11:46:57;;;;;;;1.27;1.15;;;8.30;99.90;;;;;;4414788;32;20098;-65
2022/02/22 11:49:26;;;;;;;0.40;0.40;;;8.00;99.90;;;;;;4415102;32;20143;-64
2022/02/22 11:51:54;;;;;;;0.45;0.45;;;8.00;99.90;;;;;;4418364;32;20141;-65
2022/02/22 11:54:22;;;;;;;0.30;0.30;;;8.30;99.90;;;;;;4409592;32;20600;-65
2022/02/22 11:57:00;;;;;;;0.30;0.30;;;8.90;99.90;;;;;;4411591;32;20425;-65
2022/02/22 11:59:25;;;;;;;0.70;0.70;;;9.10;99.90;;;;;;4413664;32;20081;-65
2022/02/22 12:01:56;;;;;;;3.30;0.75;;;9.00;99.90;;;;;;4419175;32;20098;-66
2022/02/22 12:04:26;;;;;;;1.12;0.52;;;9.10;99.90;;;;;;4419506;32;20204;-65
2022/02/22 12:06:54;;;;;;;12.75;1.37;;;9.30;99.90;;;;;;4413235;32;20125;-66
2022/02/22 12:09:33;;;;;;;0.40;0.40;;;9.50;99.90;;;;;;4404153;32;20085;-66
2022/02/22 12:12:04;;;;;;;0.55;0.55;;;10.00;99.90;;;;;;4409172;32;20094;-66
2022/02/22 12:14:30;;;;;;;1.73;0.57;;;9.70;99.90;;;;;;4408811;32;20404;-66
2022/02/22 12:16:56;;;;;;;1.12;1.10;;;9.50;99.90;;;;;;4410574;32;20094;-66
2022/02/22 12:19:21;;;;;;;0.88;0.82;;;9.10;99.90;;;;;;4412255;32;20081;-66
2022/02/22 12:21:47;;;;;;;0.77;0.70;;;8.50;99.90;;;;;;4415771;32;20105;-66
2022/02/22 12:24:15;;;;;;;0.50;0.50;;;8.10;99.90;;;;;;4416288;32;20594;-65
2022/02/22 12:26:41;;;;;;;1.08;0.70;;;8.00;99.90;;;;;;4417234;32;20600;-65
2022/02/22 12:29:08;;;;;;;0.40;0.40;;;7.90;99.90;;;;;;4422373;32;20443;-65
2022/02/22 12:31:38;;;;;;;0.47;0.43;;;7.70;99.90;;;;;;4418049;32;20088;-64
2022/02/22 12:34:08;;;;;;;0.50;0.50;;;7.60;99.90;;;;;;4414460;32;20138;-64
2022/02/22 12:36:35;;;;;;;0.62;0.62;;;7.50;99.90;;;;;;4415223;32;20104;-65
2022/02/22 12:39:04;;;;;;;3.95;1.30;;;7.60;99.90;;;;;;4416120;32;20133;-64
2022/02/22 12:41:33;;;;;;;0.45;0.45;;;7.60;99.90;;;;;;4416464;32;20073;-64
2022/02/22 12:43:58;;;;;;;3.45;1.10;;;7.80;99.90;;;;;;4409551;32;20060;-64
2022/02/22 12:46:24;;;;;;;0.30;0.30;;;8.40;99.90;;;;;;4404475;32;20169;-64
2022/02/22 12:48:51;;;;;;;1.17;1.05;;;9.40;99.90;;;;;;4403177;32;20078;-65
2022/02/22 12:51:23;;;;;;;0.77;0.77;;;10.00;99.90;;;;;;4408455;32;20152;-64
2022/02/22 12:53:58;;;;;;;0.62;0.62;;;10.70;99.90;;;;;;4399572;32;20097;-64